createdAt,value
2023-03-15T00:20:42.920Z,100.00
2023-03-15T00:25:34.802Z,100.00
2023-03-15T00:30:27.090Z,100.00
2023-03-15T00:35:18.844Z,100.00
2023-03-15T00:40:12.140Z,100.00
2023-03-15T00:45:04.959Z,100.00
2023-03-15T00:49:56.711Z,100.00
2023-03-15T00:54:53.339Z,100.00
2023-03-15T00:59:45.173Z,100.00
2023-03-15T01:04:36.856Z,100.00
2023-03-15T01:09:28.638Z,100.00
2023-03-15T01:14:20.316Z,100.00
2023-03-15T01:19:13.585Z,100.00
2023-03-15T01:24:05.650Z,97.05
2023-03-15T01:28:57.424Z,94.85
2023-03-15T01:33:49.276Z,93.24
2023-03-15T01:38:41.344Z,95.51
2023-03-15T01:43:33.936Z,93.50
2023-03-15T01:48:36.855Z,91.33
2023-03-15T01:53:32.828Z,95.68
2023-03-15T01:58:28.248Z,97.98
2023-03-15T02:14:17.350Z,100.00
2023-03-15T02:24:51.173Z,100.00
2023-03-15T02:29:42.956Z,99.76
2023-03-15T02:34:34.648Z,99.26
2023-03-15T02:39:27.107Z,99.08
2023-03-15T02:44:24.145Z,98.67
2023-03-15T02:49:21.406Z,99.85
2023-03-15T03:09:40.847Z,97.94
2023-03-15T03:14:32.540Z,99.25
2023-03-15T03:19:25.528Z,99.52
2023-03-15T03:24:17.331Z,100.00
2023-03-15T03:29:09.018Z,100.00
2023-03-15T03:34:00.707Z,100.00
2023-03-15T03:38:54.021Z,100.00
2023-03-15T03:43:45.701Z,100.00
2023-03-15T03:48:37.524Z,100.00
2023-03-15T03:53:29.262Z,100.00
2023-03-15T03:58:22.022Z,100.00
2023-03-15T04:03:13.765Z,100.00
2023-03-15T04:08:05.675Z,100.00
2023-03-15T04:12:57.503Z,100.00
2023-03-15T04:17:55.771Z,100.00
2023-03-15T04:33:05.209Z,100.00
2023-03-15T04:37:57.606Z,100.00
2023-03-15T04:42:57.010Z,100.00
2023-03-15T04:47:50.983Z,100.00
2023-03-15T04:52:44.603Z,100.00
2023-03-15T04:57:37.315Z,100.00
2023-03-15T05:02:28.987Z,100.00
2023-03-15T05:07:20.646Z,100.00
2023-03-15T05:12:13.407Z,100.00
2023-03-15T05:17:05.535Z,100.00
2023-03-15T05:21:57.206Z,100.00
2023-03-15T05:26:48.916Z,100.00
2023-03-15T05:31:40.890Z,100.00
2023-03-15T05:36:34.233Z,100.00
2023-03-15T05:41:25.911Z,100.00
2023-03-15T05:46:18.565Z,100.00
2023-03-15T05:51:10.389Z,100.00
2023-03-15T05:56:02.313Z,100.00
2023-03-15T06:00:54.035Z,100.00
2023-03-15T06:15:58.616Z,93.29
2023-03-15T06:26:18.737Z,84.92
2023-03-15T06:31:14.965Z,80.81
2023-03-15T06:36:09.959Z,78.47
2023-03-15T06:41:01.714Z,77.20
2023-03-15T06:45:56.565Z,76.41
2023-03-15T06:50:48.939Z,78.06
2023-03-15T06:55:40.624Z,78.85
2023-03-15T07:00:32.322Z,78.95
2023-03-15T07:05:24.534Z,77.20
2023-03-15T07:10:17.454Z,77.07
2023-03-15T07:15:10.174Z,75.02
2023-03-15T07:20:02.335Z,76.40
2023-03-15T07:24:54.651Z,74.02
2023-03-15T07:29:46.886Z,74.31
2023-03-15T07:34:39.777Z,72.52
2023-03-15T07:39:33.014Z,70.04
2023-03-15T07:44:30.902Z,71.11
2023-03-15T07:54:31.548Z,71.94
2023-03-15T07:59:23.207Z,70.38
2023-03-15T08:04:14.875Z,69.34
2023-03-15T08:09:06.813Z,69.75
2023-03-15T08:13:58.599Z,68.88
2023-03-15T08:23:57.167Z,65.11
2023-03-15T08:33:54.913Z,66.44
2023-03-15T08:38:50.344Z,63.52
2023-03-15T08:48:48.257Z,63.55
2023-03-15T08:53:41.709Z,63.99
2023-03-15T08:58:34.738Z,66.12
2023-03-15T09:03:26.520Z,66.02
2023-03-15T09:08:21.045Z,66.27
2023-03-15T09:13:12.746Z,65.90
2023-03-15T09:18:06.055Z,67.22
2023-03-15T09:22:58.725Z,66.70
2023-03-15T09:27:51.740Z,65.74
2023-03-15T09:32:44.981Z,66.17
2023-03-15T09:37:37.442Z,63.76
2023-03-15T09:42:38.770Z,65.02
2023-03-15T09:47:52.122Z,66.40
2023-03-15T09:52:55.975Z,67.11
2023-03-15T10:09:05.664Z,71.01
2023-03-15T10:14:58.507Z,69.63
2023-03-15T10:20:03.765Z,69.92
2023-03-15T10:25:11.808Z,67.74
2023-03-15T10:30:22.820Z,67.11
2023-03-15T10:35:20.741Z,67.53
2023-03-15T10:40:16.329Z,65.61
2023-03-15T10:45:25.400Z,63.68
2023-03-15T10:50:33.229Z,65.38
2023-03-15T10:55:35.978Z,65.12
2023-03-15T11:00:37.031Z,63.45
2023-03-15T11:28:02.972Z,59.07
2023-03-15T11:33:11.914Z,58.80
2023-03-15T11:54:21.515Z,54.22
2023-03-15T11:59:40.672Z,50.32
2023-03-15T12:04:43.689Z,50.32
2023-03-15T12:09:36.541Z,51.29
2023-03-15T12:14:34.345Z,51.86
2023-03-15T12:19:28.104Z,51.81
2023-03-15T12:24:39.424Z,51.09
2023-03-15T12:29:38.152Z,46.53
2023-03-15T12:50:48.796Z,45.39
2023-03-15T12:55:50.050Z,44.17
2023-03-15T13:12:28.518Z,44.07
2023-03-15T13:29:22.987Z,46.70
2023-03-15T13:49:58.852Z,42.82
2023-03-15T14:05:29.420Z,41.49
2023-03-15T14:10:28.548Z,41.80
2023-03-15T14:15:45.940Z,41.42
2023-03-15T14:20:46.767Z,39.34
2023-03-15T15:02:02.192Z,39.62
2023-03-15T15:06:56.026Z,40.90
2023-03-15T15:32:19.298Z,43.73
2023-03-15T15:37:15.001Z,44.42
2023-03-15T15:47:19.128Z,43.64
2023-03-15T15:52:16.278Z,44.07
2023-03-15T15:57:13.004Z,43.13
2023-03-15T16:13:01.092Z,44.17
2023-03-15T16:54:08.755Z,43.70
2023-03-15T16:59:09.072Z,44.33
2023-03-15T17:04:02.908Z,45.19
2023-03-15T17:14:29.746Z,47.55
2023-03-15T17:19:21.798Z,48.39
2023-03-15T17:24:14.441Z,49.22
2023-03-15T17:39:20.613Z,53.65
2023-03-15T17:44:12.909Z,54.75
2023-03-15T17:49:08.764Z,56.10
2023-03-15T18:19:53.836Z,57.76
2023-03-15T18:30:16.488Z,54.14
2023-03-15T18:35:18.814Z,54.53
2023-03-15T18:55:48.277Z,58.85
2023-03-15T19:00:41.411Z,60.49
2023-03-15T19:05:36.816Z,60.83
2023-03-15T19:10:28.545Z,61.75
2023-03-15T19:15:22.095Z,62.52
2023-03-15T19:20:17.231Z,64.30
2023-03-15T19:25:14.059Z,64.07
2023-03-15T19:30:08.959Z,65.73
2023-03-15T19:35:04.724Z,65.53
2023-03-15T19:39:56.401Z,65.97
2023-03-15T19:44:49.285Z,67.03
2023-03-15T19:49:41.182Z,68.71
2023-03-15T19:54:33.965Z,69.97
2023-03-15T19:59:26.169Z,70.07
2023-03-15T20:04:17.979Z,71.86
2023-03-15T20:09:11.167Z,72.14
2023-03-15T20:14:04.734Z,72.78
2023-03-15T20:18:57.640Z,69.75
2023-03-15T20:23:53.882Z,68.10
2023-03-15T20:28:47.420Z,69.76
2023-03-15T20:33:39.860Z,70.71
2023-03-15T20:38:41.688Z,71.82
2023-03-15T20:43:34.304Z,74.46
2023-03-15T20:48:34.922Z,73.96
2023-03-15T20:58:32.797Z,74.20
2023-03-15T21:03:25.541Z,75.54
2023-03-15T21:08:17.774Z,76.89
2023-03-15T21:18:26.736Z,80.08
2023-03-15T21:23:20.535Z,81.39
2023-03-15T21:28:12.201Z,81.40
2023-03-15T21:33:04.870Z,82.60
2023-03-15T21:37:58.276Z,83.34
2023-03-15T21:42:50.856Z,83.50
2023-03-15T21:47:46.850Z,84.74
2023-03-15T21:52:38.825Z,84.37
2023-03-15T21:57:33.581Z,84.72
2023-03-15T22:07:35.728Z,87.25
2023-03-15T22:23:01.802Z,89.87
2023-03-15T22:27:53.769Z,90.69
2023-03-15T22:32:46.465Z,91.95
2023-03-15T22:37:38.206Z,91.71
2023-03-15T22:42:29.960Z,92.28
2023-03-15T22:47:21.685Z,92.24
2023-03-15T22:52:13.465Z,92.01
2023-03-15T22:57:05.149Z,92.98
2023-03-15T23:01:57.353Z,93.68
2023-03-15T23:06:50.559Z,92.96
2023-03-15T23:11:42.337Z,93.98
2023-03-15T23:16:34.186Z,94.61
2023-03-15T23:36:55.384Z,96.15
2023-03-15T23:41:50.655Z,97.23
2023-03-15T23:51:59.949Z,99.27
